Etusivu
METAR-TAF:

METAR-TAF

Lentoasemat :

Greenville, Maine, Yhdysvallat

Leveyspiiri: 45-28N, Pituuspiiri: 069-35W, korkeus merenpinnasta: 427 m

Tämänhetkinen sää

Tämä raportti tehtiin 50 minuuttia sitten, kello 14.56 UTC
Tuuli 10 kn pohjoisen/luoteesta puuskistuen 22 kn:hen
Lämpötila 9°C
Kosteus 61%
Ilmanpaine 1020 hPa

METAR: KGNR 221456Z AUTO 34010G22KT 09/02 A3013 RMK AO1 SLP212 T00940017 51022

Aika: 11:46 (15:46 UTC)


TAF: puuttuu

Säähavainnot ja -ennusteet yli 4000 lentoasemalta (METAR- ja TAF-raportit).

Käytössä olevat sääasemat on merkitty karttaan keltaisilla ja punaisilla pisteillä.

Aseta hiiri pisteen päälle nähdäksesi sääaseman nimen.

Klikkaa sitten nähdäksesi säähavainnot ja -ennusteet.

Kartan vaihtaminen: klikkaa mustalla rastilla varustettuja vihreitä pisteitä, niin voit zoomata sisään; viivalla varustettua vihreää pistettä, niin voit zoomata ulos tai vihreitä nuolia, niin pääset viereisille kartoille.


METAR-TAF: